createdAt,value
2017-07-22T00:03:13.583Z,7.33
2017-07-22T00:05:47.794Z,7.43
2017-07-22T00:10:47.905Z,7.77
2017-07-22T00:13:14.978Z,8.00
2017-07-22T00:15:44.162Z,7.57
2017-07-22T00:18:14.183Z,7.47
2017-07-22T00:20:40.294Z,8.40
2017-07-22T00:23:07.119Z,7.50
2017-07-22T00:25:36.859Z,8.50
2017-07-22T00:28:07.742Z,8.37
2017-07-22T00:30:37.576Z,8.40
2017-07-22T00:33:06.123Z,8.27
2017-07-22T00:35:32.692Z,8.33
2017-07-22T00:41:01.644Z,8.43
2017-07-22T00:43:28.839Z,9.27
2017-07-22T00:45:54.911Z,9.20
2017-07-22T00:48:22.645Z,9.63
2017-07-22T00:50:49.977Z,10.57
2017-07-22T00:53:18.646Z,9.77
2017-07-22T00:55:45.608Z,9.80
2017-07-22T00:58:13.010Z,9.57
2017-07-22T01:00:39.762Z,9.90
2017-07-22T01:03:06.610Z,9.83
2017-07-22T01:05:38.577Z,8.70
2017-07-22T01:08:05.838Z,9.13
2017-07-22T01:10:32.187Z,7.53
2017-07-22T01:12:59.128Z,8.70
2017-07-22T01:15:26.626Z,8.93
2017-07-22T01:17:53.225Z,8.03
2017-07-22T01:20:20.846Z,8.60
2017-07-22T01:22:47.658Z,8.50
2017-07-22T01:25:13.631Z,8.27
2017-07-22T01:27:39.667Z,9.20
2017-07-22T01:30:07.721Z,7.27
2017-07-22T01:32:33.743Z,7.10
2017-07-22T01:34:59.773Z,7.50
2017-07-22T01:37:26.693Z,8.60
2017-07-22T01:39:54.981Z,9.17
2017-07-22T01:42:24.376Z,9.60
2017-07-22T01:44:52.087Z,10.63
2017-07-22T01:47:19.695Z,11.13
2017-07-22T01:52:20.695Z,10.80
2017-07-22T01:54:48.336Z,10.60
2017-07-22T01:57:14.359Z,9.70
2017-07-22T01:59:40.973Z,11.60
2017-07-22T02:02:10.829Z,10.93
2017-07-22T02:04:36.854Z,10.83
2017-07-22T02:07:04.281Z,9.10
2017-07-22T02:09:30.930Z,10.50
2017-07-22T02:11:57.488Z,10.17
2017-07-22T02:14:24.772Z,10.10
2017-07-22T02:16:50.795Z,10.87
2017-07-22T02:19:17.383Z,9.60
2017-07-22T02:21:45.263Z,11.07
2017-07-22T02:24:11.912Z,10.33
2017-07-22T02:26:37.948Z,10.37
2017-07-22T02:29:04.903Z,10.50
2017-07-22T02:31:32.867Z,10.80
2017-07-22T02:33:59.928Z,10.77
2017-07-22T02:36:26.924Z,10.87
2017-07-22T02:38:52.967Z,11.87
2017-07-22T02:41:20.962Z,11.20
2017-07-22T02:43:47.463Z,12.13
2017-07-22T02:46:14.434Z,11.20
2017-07-22T02:48:42.003Z,10.30
2017-07-22T02:51:08.055Z,11.40
2017-07-22T02:53:38.690Z,11.20
2017-07-22T02:56:04.737Z,11.20
2017-07-22T02:58:32.397Z,10.10
2017-07-22T03:00:59.475Z,9.20
2017-07-22T03:03:26.112Z,8.50
2017-07-22T03:05:52.077Z,7.90
2017-07-22T03:08:19.823Z,7.80
2017-07-22T03:10:45.902Z,8.13
2017-07-22T03:13:12.066Z,7.20
2017-07-22T03:15:38.570Z,8.00
2017-07-22T03:18:05.346Z,6.73
2017-07-22T03:20:31.536Z,7.80
2017-07-22T03:22:58.266Z,6.87
2017-07-22T03:25:24.706Z,6.77
2017-07-22T03:27:52.320Z,6.47
2017-07-22T03:30:19.511Z,7.10
2017-07-22T03:32:46.305Z,7.00
2017-07-22T03:35:16.295Z,6.93
2017-07-22T03:37:47.262Z,7.00
2017-07-22T03:40:14.144Z,6.97
2017-07-22T03:42:41.023Z,6.43
2017-07-22T03:45:07.116Z,6.90
2017-07-22T03:47:37.146Z,6.83
2017-07-22T03:50:05.610Z,6.80
2017-07-22T03:52:31.692Z,6.57
2017-07-22T03:55:00.136Z,6.83
2017-07-22T03:57:27.167Z,7.40
2017-07-22T03:59:54.224Z,7.80
2017-07-22T04:02:20.271Z,6.20
2017-07-22T04:04:46.257Z,6.53
2017-07-22T04:07:12.387Z,6.77
2017-07-22T04:09:40.171Z,6.50
2017-07-22T04:12:06.404Z,6.80
2017-07-22T04:14:32.432Z,7.33
2017-07-22T04:16:58.443Z,7.47
2017-07-22T04:19:26.054Z,7.00
2017-07-22T04:21:53.264Z,6.53
2017-07-22T04:24:20.183Z,7.00
2017-07-22T04:26:46.827Z,7.17
2017-07-22T04:29:12.857Z,7.00
2017-07-22T04:31:38.861Z,6.87
2017-07-22T04:34:05.490Z,6.63
2017-07-22T04:36:34.007Z,7.53
2017-07-22T04:38:59.982Z,6.57
2017-07-22T04:41:26.982Z,7.10
2017-07-22T04:43:54.274Z,7.70
2017-07-22T04:46:20.237Z,7.40
2017-07-22T04:48:47.795Z,6.30
2017-07-22T04:51:13.757Z,6.40
2017-07-22T04:53:40.806Z,6.40
2017-07-22T04:56:06.819Z,6.40
2017-07-22T04:58:32.828Z,7.30
2017-07-22T05:00:59.561Z,7.17
2017-07-22T05:03:27.352Z,7.17
2017-07-22T05:05:54.398Z,8.10
2017-07-22T05:08:20.449Z,7.20
2017-07-22T05:10:46.436Z,7.50
2017-07-22T05:13:14.136Z,8.37
2017-07-22T05:15:41.564Z,7.00
2017-07-22T05:18:07.795Z,9.00
2017-07-22T05:20:33.834Z,8.57
2017-07-22T05:23:02.483Z,9.10
2017-07-22T05:25:28.495Z,9.73
2017-07-22T05:27:55.312Z,8.43
2017-07-22T05:30:21.382Z,7.70
2017-07-22T05:32:47.438Z,7.50
2017-07-22T05:35:18.916Z,7.80
2017-07-22T05:40:15.843Z,7.77
2017-07-22T05:42:43.174Z,8.87
2017-07-22T05:45:10.175Z,6.93
2017-07-22T05:47:36.899Z,8.07
2017-07-22T05:50:03.056Z,8.57
2017-07-22T05:52:29.056Z,9.50
2017-07-22T05:54:55.059Z,8.40
2017-07-22T05:57:21.833Z,9.47
2017-07-22T05:59:48.609Z,9.70
2017-07-22T06:02:15.590Z,9.37
2017-07-22T06:04:42.927Z,10.53
2017-07-22T06:07:08.914Z,8.80
2017-07-22T06:09:37.045Z,10.13
2017-07-22T06:12:03.063Z,11.63
2017-07-22T06:14:29.050Z,10.80
2017-07-22T06:16:58.579Z,12.30
2017-07-22T06:21:58.135Z,11.63
2017-07-22T06:24:25.786Z,11.77
2017-07-22T06:26:56.131Z,12.77
2017-07-22T06:29:23.746Z,13.00
2017-07-22T06:31:50.549Z,12.93
2017-07-22T06:34:17.956Z,14.37
2017-07-22T06:36:43.941Z,13.90
2017-07-22T06:39:11.524Z,15.40
2017-07-22T06:41:41.289Z,15.47
2017-07-22T06:44:08.274Z,14.23
2017-07-22T06:46:34.553Z,15.03
2017-07-22T06:49:04.073Z,16.30
2017-07-22T06:51:30.159Z,15.20
2017-07-22T06:54:00.100Z,15.37
2017-07-22T06:56:27.607Z,14.60
2017-07-22T07:01:28.677Z,17.00
2017-07-22T07:03:54.662Z,16.30
2017-07-22T07:06:22.703Z,16.93
2017-07-22T07:08:48.948Z,16.50
2017-07-22T07:11:17.475Z,17.20
2017-07-22T07:13:44.816Z,16.03
2017-07-22T07:16:12.831Z,16.80
2017-07-22T07:18:40.651Z,16.70
2017-07-22T07:21:07.586Z,15.93
2017-07-22T07:26:09.227Z,15.80
2017-07-22T07:28:36.871Z,16.63
2017-07-22T07:31:05.921Z,15.47
2017-07-22T07:33:33.929Z,15.10
2017-07-22T07:36:00.484Z,12.00
2017-07-22T07:38:28.848Z,12.73
2017-07-22T07:40:57.125Z,11.40
2017-07-22T07:43:28.868Z,11.50
2017-07-22T07:45:57.249Z,11.20
2017-07-22T07:48:29.358Z,10.13
2017-07-22T07:50:55.604Z,10.70
2017-07-22T07:53:24.572Z,8.60
2017-07-22T07:58:29.495Z,8.93
2017-07-22T08:00:56.759Z,9.40
2017-07-22T08:03:23.894Z,9.80
2017-07-22T08:05:53.551Z,9.07
2017-07-22T08:08:20.900Z,10.10
2017-07-22T08:10:49.278Z,10.57
2017-07-22T08:13:15.638Z,10.30
2017-07-22T08:15:46.420Z,10.83
2017-07-22T08:18:15.482Z,9.90
2017-07-22T08:20:42.303Z,9.20
2017-07-22T08:23:09.086Z,8.87
2017-07-22T08:25:36.918Z,9.80
2017-07-22T08:28:03.573Z,9.80
2017-07-22T08:30:32.148Z,10.30
2017-07-22T08:32:58.860Z,10.20
2017-07-22T08:35:26.852Z,10.70
2017-07-22T08:37:54.193Z,10.47
2017-07-22T08:42:53.845Z,9.77
2017-07-22T08:45:22.946Z,10.10
2017-07-22T08:47:49.822Z,9.37
2017-07-22T08:50:18.984Z,10.53
2017-07-22T08:52:45.815Z,9.90
2017-07-22T08:55:12.788Z,9.90
2017-07-22T08:57:40.677Z,8.30
2017-07-22T09:00:07.284Z,8.90
2017-07-22T09:02:41.539Z,8.70
2017-07-22T09:05:11.150Z,7.77
2017-07-22T09:07:38.103Z,8.10
2017-07-22T09:10:07.638Z,7.83
2017-07-22T09:12:36.247Z,8.43
2017-07-22T09:15:07.298Z,8.10
2017-07-22T09:17:33.882Z,8.03
2017-07-22T09:20:00.942Z,7.97
2017-07-22T09:22:31.398Z,6.70
2017-07-22T09:24:58.223Z,7.03
2017-07-22T09:27:25.963Z,7.20
2017-07-22T09:29:59.356Z,7.40
2017-07-22T09:32:28.660Z,7.13
2017-07-22T09:34:57.350Z,7.23
2017-07-22T09:37:27.484Z,7.30
2017-07-22T09:39:56.627Z,6.73
2017-07-22T09:42:24.282Z,7.30
2017-07-22T09:47:23.402Z,6.73
2017-07-22T09:49:52.145Z,7.00
2017-07-22T09:52:20.349Z,6.13
2017-07-22T09:57:21.935Z,5.77
2017-07-22T09:59:51.138Z,7.43
2017-07-22T10:02:21.398Z,6.90
2017-07-22T10:04:50.606Z,7.63
2017-07-22T10:07:25.932Z,7.50
2017-07-22T10:09:56.721Z,7.47
2017-07-22T10:15:08.561Z,7.50
2017-07-22T10:17:35.678Z,9.97
2017-07-22T10:20:06.641Z,7.87
2017-07-22T10:22:33.640Z,7.00
2017-07-22T10:25:02.572Z,7.20
2017-07-22T10:27:31.174Z,7.50
2017-07-22T10:32:32.208Z,7.80
2017-07-22T10:35:01.112Z,7.03
2017-07-22T10:37:28.105Z,6.47
2017-07-22T10:39:58.640Z,6.43
2017-07-22T10:42:28.551Z,6.63
2017-07-22T10:47:29.765Z,6.70
2017-07-22T10:50:03.114Z,6.63
2017-07-22T10:52:32.482Z,6.50
2017-07-22T10:55:02.633Z,7.90
2017-07-22T10:57:28.664Z,6.80
2017-07-22T11:02:36.259Z,7.20
2017-07-22T11:05:04.422Z,7.20
2017-07-22T11:07:32.817Z,7.70
2017-07-22T11:09:59.709Z,7.43
2017-07-22T11:12:29.182Z,7.33
2017-07-22T11:17:31.088Z,7.67
2017-07-22T11:19:59.924Z,7.53
2017-07-22T11:22:31.492Z,7.50
2017-07-22T11:24:59.661Z,6.63
2017-07-22T11:27:34.239Z,6.80
2017-07-22T11:30:13.813Z,7.67
2017-07-22T11:35:15.913Z,7.43
2017-07-22T11:37:48.267Z,7.67
2017-07-22T11:42:47.229Z,7.30
2017-07-22T11:45:15.365Z,7.00
2017-07-22T11:47:44.830Z,7.83
2017-07-22T11:55:21.780Z,8.50
2017-07-22T11:57:48.745Z,10.70
2017-07-22T12:00:16.375Z,9.20
2017-07-22T12:02:44.966Z,8.70
2017-07-22T12:10:14.785Z,10.13
2017-07-22T12:15:14.209Z,10.37
2017-07-22T12:25:19.986Z,10.10
2017-07-22T12:27:46.602Z,8.10
2017-07-22T12:30:15.596Z,9.17
2017-07-22T12:32:44.330Z,8.50
2017-07-22T12:35:10.449Z,8.73
2017-07-22T12:37:40.003Z,8.00
2017-07-22T12:40:10.680Z,8.30
2017-07-22T12:42:39.783Z,7.63
2017-07-22T12:45:07.749Z,7.10
2017-07-22T12:50:26.160Z,6.30
2017-07-22T12:52:56.873Z,5.93
2017-07-22T12:55:23.661Z,6.50
2017-07-22T12:57:52.217Z,7.73
2017-07-22T13:00:20.535Z,5.67
2017-07-22T13:02:46.922Z,5.43
2017-07-22T13:05:16.998Z,5.60
2017-07-22T13:07:47.618Z,6.77
2017-07-22T13:10:27.569Z,5.60
2017-07-22T13:15:30.941Z,4.47
2017-07-22T13:17:57.045Z,4.00
2017-07-22T13:20:24.136Z,3.97
2017-07-22T13:22:56.766Z,4.70
2017-07-22T13:25:24.321Z,4.47
2017-07-22T13:27:52.308Z,4.50
2017-07-22T13:30:27.417Z,4.37
2017-07-22T13:32:55.179Z,5.77
2017-07-22T13:37:55.284Z,5.07
2017-07-22T13:40:23.680Z,4.60
2017-07-22T13:42:52.895Z,5.07
2017-07-22T13:45:27.197Z,5.10
2017-07-22T13:47:59.853Z,4.50
2017-07-22T13:53:01.380Z,4.43
2017-07-22T13:55:30.012Z,5.93
2017-07-22T13:57:58.105Z,5.23
2017-07-22T14:00:39.325Z,4.97
2017-07-22T14:05:42.314Z,5.90
2017-07-22T14:08:16.681Z,5.23
2017-07-22T14:13:24.918Z,5.70
2017-07-22T14:15:55.556Z,6.17
2017-07-22T14:18:23.866Z,5.27
2017-07-22T14:20:53.643Z,5.67
2017-07-22T14:23:24.811Z,5.07
2017-07-22T14:25:51.955Z,4.60
2017-07-22T14:30:59.201Z,6.50
2017-07-22T14:33:31.078Z,5.27
2017-07-22T14:36:03.053Z,5.40
2017-07-22T14:38:30.102Z,4.80
2017-07-22T14:40:59.050Z,5.80
2017-07-22T14:43:26.512Z,6.40
2017-07-22T14:45:54.209Z,5.67
2017-07-22T14:50:57.597Z,6.43
2017-07-22T14:56:17.144Z,5.47
2017-07-22T14:58:46.152Z,5.07
2017-07-22T15:06:20.209Z,5.50
2017-07-22T15:08:47.425Z,5.07
2017-07-22T15:11:19.500Z,5.10
2017-07-22T15:16:20.971Z,5.07
2017-07-22T15:18:53.391Z,4.73
2017-07-22T15:21:24.604Z,4.87
2017-07-22T15:32:02.433Z,4.97
2017-07-22T15:34:32.080Z,5.10
2017-07-22T15:37:01.783Z,5.60
2017-07-22T15:39:35.044Z,5.33
2017-07-22T15:42:08.258Z,5.43
2017-07-22T15:44:41.799Z,5.80
2017-07-22T15:49:55.146Z,5.20
2017-07-22T15:57:51.612Z,5.37
2017-07-22T16:00:31.698Z,6.87
2017-07-22T16:03:01.675Z,6.53
2017-07-22T16:47:33.656Z,5.73
2017-07-22T17:15:24.110Z,5.83
2017-07-22T17:28:37.928Z,6.90
2017-07-22T17:41:32.213Z,8.70
2017-07-22T17:46:39.206Z,6.97
2017-07-22T17:51:42.866Z,6.40
2017-07-22T17:54:12.175Z,6.90
2017-07-22T17:59:14.526Z,8.50
2017-07-22T18:01:43.232Z,9.37
2017-07-22T18:06:52.078Z,7.20
2017-07-22T18:09:21.984Z,9.17
2017-07-22T18:11:50.164Z,8.73
2017-07-22T18:14:19.431Z,8.00
2017-07-22T18:16:51.987Z,8.00
2017-07-22T18:21:55.324Z,8.50
2017-07-22T18:24:26.478Z,9.03
2017-07-22T18:27:03.062Z,7.63
2017-07-22T18:29:34.708Z,9.90
2017-07-22T18:34:37.773Z,9.00
2017-07-22T18:37:08.049Z,8.57
2017-07-22T18:39:37.912Z,8.60
2017-07-22T18:42:10.997Z,10.57
2017-07-22T18:44:41.936Z,10.17
2017-07-22T18:47:08.996Z,9.37
2017-07-22T18:49:40.520Z,9.23
2017-07-22T18:52:12.628Z,8.87
2017-07-22T18:54:42.085Z,7.77
2017-07-22T18:59:44.848Z,8.17
2017-07-22T19:02:13.938Z,9.03
2017-07-22T19:04:47.348Z,11.40
2017-07-22T19:07:20.440Z,9.20
2017-07-22T19:14:52.496Z,10.33
2017-07-22T19:20:02.837Z,8.37
2017-07-22T19:22:37.768Z,11.00
2017-07-22T19:25:05.137Z,10.93
2017-07-22T19:27:39.372Z,9.47
2017-07-22T19:30:11.470Z,9.20
2017-07-22T19:32:38.990Z,11.23
2017-07-22T19:35:06.658Z,16.77
2017-07-22T19:37:38.280Z,16.40
2017-07-22T19:40:05.792Z,15.20
2017-07-22T19:42:34.239Z,12.90
2017-07-22T19:45:04.476Z,12.57
2017-07-22T19:47:31.722Z,12.17
2017-07-22T19:49:59.466Z,12.13
2017-07-22T19:52:27.761Z,11.00
2017-07-22T19:54:54.446Z,13.67
2017-07-22T19:57:23.113Z,11.73
2017-07-22T19:59:51.020Z,12.57
2017-07-22T20:02:18.507Z,11.70
2017-07-22T20:04:45.239Z,13.33
2017-07-22T20:07:12.824Z,12.47
2017-07-22T20:09:40.577Z,13.80
2017-07-22T20:12:08.259Z,14.23
2017-07-22T20:14:37.478Z,13.00
2017-07-22T20:17:03.523Z,14.70
2017-07-22T20:19:34.342Z,13.83
2017-07-22T20:24:37.659Z,12.93
2017-07-22T20:27:05.920Z,13.30
2017-07-22T20:29:33.632Z,14.33
2017-07-22T20:32:01.163Z,15.17
2017-07-22T20:34:28.847Z,14.07
2017-07-22T20:36:54.996Z,14.60
2017-07-22T20:39:27.240Z,14.90
2017-07-22T20:41:58.627Z,14.07
2017-07-22T20:44:25.539Z,16.07
2017-07-22T20:46:58.479Z,16.20
2017-07-22T20:49:31.096Z,15.30
2017-07-22T20:51:58.241Z,16.27
2017-07-22T20:54:29.470Z,17.40
2017-07-22T20:56:59.163Z,17.70
2017-07-22T20:59:26.843Z,22.37
2017-07-22T21:01:54.150Z,17.40
2017-07-22T21:04:22.086Z,16.17
2017-07-22T21:06:49.003Z,18.07
2017-07-22T21:14:21.750Z,19.40
2017-07-22T21:22:01.725Z,18.73
2017-07-22T21:24:30.676Z,21.30
2017-07-22T21:34:37.691Z,17.00
2017-07-22T21:37:03.867Z,17.70
2017-07-22T21:39:31.127Z,17.43
2017-07-22T21:41:58.470Z,16.80
2017-07-22T21:44:27.457Z,22.33
2017-07-22T21:49:29.419Z,19.70
2017-07-22T21:54:30.707Z,18.67
2017-07-22T21:56:58.055Z,15.37
2017-07-22T21:59:24.999Z,16.80
2017-07-22T22:01:51.656Z,19.80
2017-07-22T22:04:18.586Z,18.03
2017-07-22T22:06:47.854Z,17.23
2017-07-22T22:09:14.897Z,16.50
2017-07-22T22:11:41.900Z,15.73
2017-07-22T22:14:09.559Z,12.60
2017-07-22T22:16:40.124Z,14.40
2017-07-22T22:19:07.652Z,18.47
2017-07-22T22:21:35.007Z,14.27
2017-07-22T22:24:04.118Z,15.10
2017-07-22T22:31:37.606Z,13.20
2017-07-22T22:34:06.737Z,14.40
2017-07-22T22:36:34.637Z,13.73
2017-07-22T22:39:01.173Z,14.13
2017-07-22T22:41:27.199Z,16.10
2017-07-22T22:43:53.775Z,14.93
2017-07-22T22:46:23.159Z,14.73
2017-07-22T22:51:22.670Z,15.93
2017-07-22T22:53:51.550Z,16.43
2017-07-22T22:56:19.643Z,15.90
2017-07-22T22:58:46.273Z,16.73
2017-07-22T23:01:12.288Z,14.10
2017-07-22T23:03:38.933Z,11.07
2017-07-22T23:06:07.380Z,8.10
2017-07-22T23:08:34.379Z,6.53
2017-07-22T23:13:33.076Z,5.80
2017-07-22T23:16:00.341Z,6.53
2017-07-22T23:18:27.326Z,6.90
2017-07-22T23:20:53.332Z,6.27
2017-07-22T23:23:20.192Z,6.23
2017-07-22T23:25:47.097Z,6.33
2017-07-22T23:28:14.074Z,6.20
2017-07-22T23:35:43.300Z,5.63
2017-07-22T23:38:10.125Z,6.00
2017-07-22T23:40:36.161Z,6.30
2017-07-22T23:43:03.397Z,5.80
2017-07-22T23:45:30.046Z,5.20
2017-07-22T23:47:57.533Z,5.30
2017-07-22T23:50:25.893Z,5.70
2017-07-22T23:52:52.835Z,5.43
2017-07-22T23:55:19.284Z,5.30
2017-07-22T23:57:46.242Z,6.20
